sensor_id;sensor_type;location;lat;lon;timestamp;pressure;altitude;pressure_sealevel;temperature;humidity
47054;BME280;32811;52.382;5.270;2024-01-30T00:02:02;102655.38;;;5.01;100.00
47054;BME280;32811;52.382;5.270;2024-01-30T00:04:28;102659.88;;;5.05;100.00
47054;BME280;32811;52.382;5.270;2024-01-30T00:06:55;102666.94;;;5.09;100.00
47054;BME280;32811;52.382;5.270;2024-01-30T00:09:22;102673.53;;;5.06;100.00
47054;BME280;32811;52.382;5.270;2024-01-30T00:11:49;102674.16;;;5.02;100.00
47054;BME280;32811;52.382;5.270;2024-01-30T00:14:15;102669.50;;;4.94;100.00
47054;BME280;32811;52.382;5.270;2024-01-30T00:16:42;102671.78;;;4.90;100.00
47054;BME280;32811;52.382;5.270;2024-01-30T00:19:08;102665.88;;;4.91;100.00
47054;BME280;32811;52.382;5.270;2024-01-30T00:21:35;102670.91;;;4.89;100.00
47054;BME280;32811;52.382;5.270;2024-01-30T00:24:02;102669.06;;;4.87;100.00
47054;BME280;32811;52.382;5.270;2024-01-30T00:26:29;102652.03;;;4.72;100.00
47054;BME280;32811;52.382;5.270;2024-01-30T00:28:55;102652.66;;;4.68;100.00
47054;BME280;32811;52.382;5.270;2024-01-30T00:31:23;102657.75;;;4.68;100.00
47054;BME280;32811;52.382;5.270;2024-01-30T00:33:50;102649.13;;;4.81;100.00
47054;BME280;32811;52.382;5.270;2024-01-30T00:36:17;102649.47;;;4.72;100.00
47054;BME280;32811;52.382;5.270;2024-01-30T00:38:44;102659.81;;;4.74;100.00
47054;BME280;32811;52.382;5.270;2024-01-30T00:41:10;102660.69;;;4.74;100.00
47054;BME280;32811;52.382;5.270;2024-01-30T00:43:37;102649.56;;;4.74;100.00
47054;BME280;32811;52.382;5.270;2024-01-30T00:46:04;102619.75;;;4.74;100.00
47054;BME280;32811;52.382;5.270;2024-01-30T00:48:31;102647.44;;;4.96;100.00
47054;BME280;32811;52.382;5.270;2024-01-30T00:50:57;102638.16;;;4.98;100.00
47054;BME280;32811;52.382;5.270;2024-01-30T00:53:24;102641.09;;;4.90;100.00
47054;BME280;32811;52.382;5.270;2024-01-30T00:55:50;102653.88;;;4.90;100.00
47054;BME280;32811;52.382;5.270;2024-01-30T00:58:17;102638.44;;;4.88;100.00
47054;BME280;32811;52.382;5.270;2024-01-30T01:00:45;102637.56;;;5.03;100.00
47054;BME280;32811;52.382;5.270;2024-01-30T01:03:12;102645.81;;;5.13;100.00
47054;BME280;32811;52.382;5.270;2024-01-30T01:05:40;102639.56;;;5.08;100.00
47054;BME280;32811;52.382;5.270;2024-01-30T01:08:07;102623.94;;;5.04;100.00
47054;BME280;32811;52.382;5.270;2024-01-30T01:10:35;102655.00;;;5.25;100.00
47054;BME280;32811;52.382;5.270;2024-01-30T01:13:01;102633.19;;;5.16;100.00
47054;BME280;32811;52.382;5.270;2024-01-30T01:15:28;102633.34;;;5.19;100.00
47054;BME280;32811;52.382;5.270;2024-01-30T01:17:56;102637.72;;;5.37;100.00
47054;BME280;32811;52.382;5.270;2024-01-30T01:20:22;102620.19;;;5.28;100.00
47054;BME280;32811;52.382;5.270;2024-01-30T01:22:49;102619.66;;;5.34;100.00
47054;BME280;32811;52.382;5.270;2024-01-30T01:25:16;102608.81;;;5.23;100.00
47054;BME280;32811;52.382;5.270;2024-01-30T01:27:43;102613.31;;;5.27;100.00
47054;BME280;32811;52.382;5.270;2024-01-30T01:30:11;102621.25;;;5.32;100.00
47054;BME280;32811;52.382;5.270;2024-01-30T01:32:40;102611.63;;;5.28;100.00
47054;BME280;32811;52.382;5.270;2024-01-30T01:35:15;102621.06;;;5.29;100.00
47054;BME280;32811;52.382;5.270;2024-01-30T01:37:42;102618.09;;;5.21;100.00
47054;BME280;32811;52.382;5.270;2024-01-30T01:40:09;102629.78;;;5.32;100.00
47054;BME280;32811;52.382;5.270;2024-01-30T01:42:36;102634.28;;;5.36;100.00
47054;BME280;32811;52.382;5.270;2024-01-30T01:45:03;102636.28;;;5.42;100.00
47054;BME280;32811;52.382;5.270;2024-01-30T01:47:29;102624.06;;;5.36;100.00
47054;BME280;32811;52.382;5.270;2024-01-30T01:49:56;102640.88;;;5.48;100.00
47054;BME280;32811;52.382;5.270;2024-01-30T01:52:23;102636.16;;;5.55;100.00
47054;BME280;32811;52.382;5.270;2024-01-30T01:54:50;102641.28;;;5.55;100.00
47054;BME280;32811;52.382;5.270;2024-01-30T01:57:20;102627.19;;;5.47;100.00
47054;BME280;32811;52.382;5.270;2024-01-30T01:59:47;102648.19;;;5.56;100.00
47054;BME280;32811;52.382;5.270;2024-01-30T02:02:14;102640.03;;;5.64;100.00
47054;BME280;32811;52.382;5.270;2024-01-30T02:04:43;102633.44;;;5.69;100.00
47054;BME280;32811;52.382;5.270;2024-01-30T02:07:10;102632.34;;;5.64;100.00
47054;BME280;32811;52.382;5.270;2024-01-30T02:09:37;102616.81;;;5.60;100.00
47054;BME280;32811;52.382;5.270;2024-01-30T02:12:04;102624.66;;;5.64;100.00
47054;BME280;32811;52.382;5.270;2024-01-30T02:14:30;102624.81;;;5.67;100.00
47054;BME280;32811;52.382;5.270;2024-01-30T02:16:57;102617.75;;;5.62;100.00
47054;BME280;32811;52.382;5.270;2024-01-30T02:19:23;102607.91;;;5.70;100.00
47054;BME280;32811;52.382;5.270;2024-01-30T02:21:51;102591.44;;;5.65;100.00
47054;BME280;32811;52.382;5.270;2024-01-30T02:24:20;102586.38;;;5.67;100.00
47054;BME280;32811;52.382;5.270;2024-01-30T02:26:46;102596.63;;;5.67;100.00
47054;BME280;32811;52.382;5.270;2024-01-30T02:29:13;102590.72;;;5.68;100.00
47054;BME280;32811;52.382;5.270;2024-01-30T02:31:39;102595.50;;;5.78;100.00
47054;BME280;32811;52.382;5.270;2024-01-30T02:34:06;102591.19;;;5.77;100.00
47054;BME280;32811;52.382;5.270;2024-01-30T02:36:33;102587.34;;;5.69;100.00
47054;BME280;32811;52.382;5.270;2024-01-30T02:38:59;102578.88;;;5.70;100.00
47054;BME280;32811;52.382;5.270;2024-01-30T02:41:26;102590.63;;;5.66;100.00
47054;BME280;32811;52.382;5.270;2024-01-30T02:43:53;102599.81;;;5.62;100.00
47054;BME280;32811;52.382;5.270;2024-01-30T02:46:19;102602.88;;;5.72;100.00
47054;BME280;32811;52.382;5.270;2024-01-30T02:48:46;102577.91;;;5.68;100.00
47054;BME280;32811;52.382;5.270;2024-01-30T02:51:13;102583.81;;;5.67;100.00
47054;BME280;32811;52.382;5.270;2024-01-30T02:53:39;102578.53;;;5.80;100.00
47054;BME280;32811;52.382;5.270;2024-01-30T02:56:06;102561.66;;;5.67;100.00
47054;BME280;32811;52.382;5.270;2024-01-30T02:58:36;102581.56;;;5.73;100.00
47054;BME280;32811;52.382;5.270;2024-01-30T03:01:03;102580.63;;;5.71;100.00
47054;BME280;32811;52.382;5.270;2024-01-30T03:03:30;102574.22;;;5.79;100.00
47054;BME280;32811;52.382;5.270;2024-01-30T03:05:56;102576.78;;;5.79;100.00
47054;BME280;32811;52.382;5.270;2024-01-30T03:08:23;102564.47;;;5.72;100.00
47054;BME280;32811;52.382;5.270;2024-01-30T03:10:50;102557.09;;;5.61;100.00
47054;BME280;32811;52.382;5.270;2024-01-30T03:13:16;102571.97;;;5.69;100.00
47054;BME280;32811;52.382;5.270;2024-01-30T03:15:43;102573.56;;;5.67;100.00
47054;BME280;32811;52.382;5.270;2024-01-30T03:18:10;102548.28;;;5.56;100.00
47054;BME280;32811;52.382;5.270;2024-01-30T03:20:36;102571.97;;;5.69;100.00
47054;BME280;32811;52.382;5.270;2024-01-30T03:23:03;102573.56;;;5.67;100.00
47054;BME280;32811;52.382;5.270;2024-01-30T03:25:30;102549.31;;;5.60;100.00
47054;BME280;32811;52.382;5.270;2024-01-30T03:27:57;102562.22;;;5.61;100.00
47054;BME280;32811;52.382;5.270;2024-01-30T03:30:23;102547.31;;;5.54;100.00
47054;BME280;32811;52.382;5.270;2024-01-30T03:32:50;102556.59;;;5.69;100.00
47054;BME280;32811;52.382;5.270;2024-01-30T03:35:18;102547.94;;;5.67;100.00
47054;BME280;32811;52.382;5.270;2024-01-30T03:37:45;102549.00;;;5.70;100.00
47054;BME280;32811;52.382;5.270;2024-01-30T03:40:12;102529.13;;;5.66;100.00
47054;BME280;32811;52.382;5.270;2024-01-30T03:42:39;102539.47;;;5.68;100.00
47054;BME280;32811;52.382;5.270;2024-01-30T03:45:08;102536.41;;;5.75;100.00
47054;BME280;32811;52.382;5.270;2024-01-30T03:47:35;102535.16;;;5.83;100.00
47054;BME280;32811;52.382;5.270;2024-01-30T03:50:01;102520.56;;;5.82;100.00
47054;BME280;32811;52.382;5.270;2024-01-30T03:52:28;102531.63;;;5.81;100.00
47054;BME280;32811;52.382;5.270;2024-01-30T03:54:55;102550.03;;;5.90;100.00
47054;BME280;32811;52.382;5.270;2024-01-30T03:57:21;102547.00;;;5.81;100.00
47054;BME280;32811;52.382;5.270;2024-01-30T03:59:48;102534.09;;;5.79;100.00
47054;BME280;32811;52.382;5.270;2024-01-30T04:02:15;102541.69;;;5.78;100.00
47054;BME280;32811;52.382;5.270;2024-01-30T04:04:41;102548.50;;;5.77;100.00
47054;BME280;32811;52.382;5.270;2024-01-30T04:07:08;102548.19;;;5.71;100.00
47054;BME280;32811;52.382;5.270;2024-01-30T04:09:35;102549.47;;;5.79;100.00
47054;BME280;32811;52.382;5.270;2024-01-30T04:12:01;102549.69;;;5.84;100.00
47054;BME280;32811;52.382;5.270;2024-01-30T04:14:29;102538.44;;;5.80;100.00
47054;BME280;32811;52.382;5.270;2024-01-30T04:16:58;102538.25;;;5.77;100.00
47054;BME280;32811;52.382;5.270;2024-01-30T04:19:25;102538.56;;;5.83;100.00
47054;BME280;32811;52.382;5.270;2024-01-30T04:21:52;102547.59;;;5.93;100.00
47054;BME280;32811;52.382;5.270;2024-01-30T04:24:18;102526.88;;;5.89;100.00
47054;BME280;32811;52.382;5.270;2024-01-30T04:26:45;102530.66;;;5.95;100.00
47054;BME280;32811;52.382;5.270;2024-01-30T04:29:12;102525.34;;;5.92;100.00
47054;BME280;32811;52.382;5.270;2024-01-30T04:31:39;102526.13;;;5.91;100.00
47054;BME280;32811;52.382;5.270;2024-01-30T04:34:05;102509.16;;;5.93;100.00
47054;BME280;32811;52.382;5.270;2024-01-30T04:36:32;102517.66;;;5.92;100.00
47054;BME280;32811;52.382;5.270;2024-01-30T04:38:59;102526.41;;;5.96;100.00
47054;BME280;32811;52.382;5.270;2024-01-30T04:41:25;102514.06;;;5.89;100.00
47054;BME280;32811;52.382;5.270;2024-01-30T04:43:52;102512.53;;;5.92;100.00
47054;BME280;32811;52.382;5.270;2024-01-30T04:46:19;102519.53;;;5.95;100.00
47054;BME280;32811;52.382;5.270;2024-01-30T04:48:46;102513.91;;;5.86;100.00
47054;BME280;32811;52.382;5.270;2024-01-30T04:51:12;102524.41;;;5.90;100.00
47054;BME280;32811;52.382;5.270;2024-01-30T04:53:39;102518.41;;;5.90;100.00
47054;BME280;32811;52.382;5.270;2024-01-30T04:56:06;102505.41;;;5.87;100.00
47054;BME280;32811;52.382;5.270;2024-01-30T04:58:33;102516.09;;;5.94;100.00
47054;BME280;32811;52.382;5.270;2024-01-30T05:00:59;102496.28;;;5.92;100.00
47054;BME280;32811;52.382;5.270;2024-01-30T05:03:26;102497.00;;;5.89;100.00
47054;BME280;32811;52.382;5.270;2024-01-30T05:05:53;102502.06;;;5.88;100.00
47054;BME280;32811;52.382;5.270;2024-01-30T05:08:19;102502.34;;;5.94;100.00
47054;BME280;32811;52.382;5.270;2024-01-30T05:10:46;102498.31;;;5.97;100.00
47054;BME280;32811;52.382;5.270;2024-01-30T05:13:12;102515.00;;;6.07;100.00
47054;BME280;32811;52.382;5.270;2024-01-30T05:15:40;102492.44;;;6.00;100.00
47054;BME280;32811;52.382;5.270;2024-01-30T05:18:07;102491.00;;;6.05;100.00
47054;BME280;32811;52.382;5.270;2024-01-30T05:20:33;102486.03;;;6.08;100.00
47054;BME280;32811;52.382;5.270;2024-01-30T05:23:00;102505.88;;;6.12;100.00
47054;BME280;32811;52.382;5.270;2024-01-30T05:25:27;102504.78;;;6.25;100.00
47054;BME280;32811;52.382;5.270;2024-01-30T05:27:54;102484.41;;;6.10;100.00
47054;BME280;32811;52.382;5.270;2024-01-30T05:30:21;102497.69;;;6.19;100.00
47054;BME280;32811;52.382;5.270;2024-01-30T05:32:48;102492.19;;;6.12;100.00
47054;BME280;32811;52.382;5.270;2024-01-30T05:35:16;102503.91;;;6.24;100.00
47054;BME280;32811;52.382;5.270;2024-01-30T05:37:42;102503.13;;;6.26;100.00
47054;BME280;32811;52.382;5.270;2024-01-30T05:40:09;102500.56;;;6.26;100.00
47054;BME280;32811;52.382;5.270;2024-01-30T05:42:36;102483.16;;;6.20;100.00
47054;BME280;32811;52.382;5.270;2024-01-30T05:45:03;102503.34;;;6.30;100.00
47054;BME280;32811;52.382;5.270;2024-01-30T05:47:31;102491.59;;;6.35;100.00
47054;BME280;32811;52.382;5.270;2024-01-30T05:49:58;102485.44;;;6.32;100.00
47054;BME280;32811;52.382;5.270;2024-01-30T05:52:25;102505.25;;;6.34;100.00
47054;BME280;32811;52.382;5.270;2024-01-30T05:54:51;102495.03;;;6.36;100.00
47054;BME280;32811;52.382;5.270;2024-01-30T05:57:18;102491.47;;;6.32;100.00
47054;BME280;32811;52.382;5.270;2024-01-30T05:59:45;102487.09;;;6.30;100.00
47054;BME280;32811;52.382;5.270;2024-01-30T06:02:11;102489.66;;;6.30;100.00
47054;BME280;32811;52.382;5.270;2024-01-30T06:04:38;102505.03;;;6.30;100.00
47054;BME280;32811;52.382;5.270;2024-01-30T06:07:05;102504.13;;;6.29;100.00
47054;BME280;32811;52.382;5.270;2024-01-30T06:09:32;102486.59;;;6.20;100.00
47054;BME280;32811;52.382;5.270;2024-01-30T06:11:59;102492.13;;;6.28;100.00
47054;BME280;32811;52.382;5.270;2024-01-30T06:14:26;102464.69;;;6.09;100.00
47054;BME280;32811;52.382;5.270;2024-01-30T06:16:52;102473.56;;;6.16;100.00
47054;BME280;32811;52.382;5.270;2024-01-30T06:19:19;102423.72;;;5.93;100.00
47054;BME280;32811;52.382;5.270;2024-01-30T06:21:46;102481.00;;;6.28;100.00
47054;BME280;32811;52.382;5.270;2024-01-30T06:24:13;102470.53;;;6.23;100.00
47054;BME280;32811;52.382;5.270;2024-01-30T06:26:40;102486.63;;;6.38;100.00
47054;BME280;32811;52.382;5.270;2024-01-30T06:29:07;102483.41;;;6.42;100.00
47054;BME280;32811;52.382;5.270;2024-01-30T06:31:40;102487.22;;;6.51;100.00
47054;BME280;32811;52.382;5.270;2024-01-30T06:34:07;102483.19;;;6.56;100.00
47054;BME280;32811;52.382;5.270;2024-01-30T06:36:34;102489.69;;;6.67;100.00
47054;BME280;32811;52.382;5.270;2024-01-30T06:39:02;102480.38;;;6.69;100.00
47054;BME280;32811;52.382;5.270;2024-01-30T06:41:29;102486.25;;;6.67;100.00
47054;BME280;32811;52.382;5.270;2024-01-30T06:43:56;102495.78;;;6.69;100.00
47054;BME280;32811;52.382;5.270;2024-01-30T06:46:22;102487.94;;;6.66;100.00
47054;BME280;32811;52.382;5.270;2024-01-30T06:48:49;102496.72;;;6.71;100.00
47054;BME280;32811;52.382;5.270;2024-01-30T06:51:16;102491.59;;;6.71;100.00
47054;BME280;32811;52.382;5.270;2024-01-30T06:53:46;102507.41;;;6.80;100.00
47054;BME280;32811;52.382;5.270;2024-01-30T06:56:12;102505.06;;;6.85;100.00
47054;BME280;32811;52.382;5.270;2024-01-30T06:58:39;102512.84;;;6.86;100.00
47054;BME280;32811;52.382;5.270;2024-01-30T07:01:06;102502.44;;;6.83;100.00
47054;BME280;32811;52.382;5.270;2024-01-30T07:03:33;102506.97;;;6.89;100.00
47054;BME280;32811;52.382;5.270;2024-01-30T07:05:59;102508.41;;;7.02;100.00
47054;BME280;32811;52.382;5.270;2024-01-30T07:08:26;102505.03;;;7.03;100.00
47054;BME280;32811;52.382;5.270;2024-01-30T07:10:52;102494.09;;;7.07;100.00
47054;BME280;32811;52.382;5.270;2024-01-30T07:13:27;102495.88;;;7.08;100.00
47054;BME280;32811;52.382;5.270;2024-01-30T07:15:54;102491.25;;;7.01;100.00
47054;BME280;32811;52.382;5.270;2024-01-30T07:18:21;102479.34;;;7.03;100.00
47054;BME280;32811;52.382;5.270;2024-01-30T07:20:48;102496.88;;;7.12;100.00
47054;BME280;32811;52.382;5.270;2024-01-30T07:23:16;102504.66;;;7.13;100.00
47054;BME280;32811;52.382;5.270;2024-01-30T07:25:44;102512.56;;;7.18;100.00
47054;BME280;32811;52.382;5.270;2024-01-30T07:28:15;102513.16;;;7.32;100.00
47054;BME280;32811;52.382;5.270;2024-01-30T07:30:45;102507.84;;;7.27;100.00
47054;BME280;32811;52.382;5.270;2024-01-30T07:33:12;102508.31;;;7.38;100.00
47054;BME280;32811;52.382;5.270;2024-01-30T07:35:39;102492.03;;;7.37;100.00
47054;BME280;32811;52.382;5.270;2024-01-30T07:38:05;102510.25;;;7.43;100.00
47054;BME280;32811;52.382;5.270;2024-01-30T07:40:32;102497.91;;;7.35;100.00
47054;BME280;32811;52.382;5.270;2024-01-30T07:42:59;102508.13;;;7.53;100.00
47054;BME280;32811;52.382;5.270;2024-01-30T07:45:27;102514.44;;;7.61;100.00
47054;BME280;32811;52.382;5.270;2024-01-30T07:47:59;102526.44;;;7.60;100.00
47054;BME280;32811;52.382;5.270;2024-01-30T07:50:31;102536.13;;;7.66;100.00
47054;BME280;32811;52.382;5.270;2024-01-30T07:52:59;102537.09;;;7.69;100.00
47054;BME280;32811;52.382;5.270;2024-01-30T07:55:26;102514.81;;;7.68;100.00
47054;BME280;32811;52.382;5.270;2024-01-30T07:57:55;102541.97;;;7.83;100.00
47054;BME280;32811;52.382;5.270;2024-01-30T08:00:22;102535.94;;;7.82;100.00
47054;BME280;32811;52.382;5.270;2024-01-30T08:02:49;102528.44;;;7.87;100.00
47054;BME280;32811;52.382;5.270;2024-01-30T08:05:15;102542.81;;;8.03;100.00
47054;BME280;32811;52.382;5.270;2024-01-30T08:07:42;102524.63;;;7.98;100.00
47054;BME280;32811;52.382;5.270;2024-01-30T08:10:11;102547.66;;;8.16;100.00
47054;BME280;32811;52.382;5.270;2024-01-30T08:12:38;102543.47;;;8.18;100.00
47054;BME280;32811;52.382;5.270;2024-01-30T08:15:05;102539.75;;;8.32;100.00
47054;BME280;32811;52.382;5.270;2024-01-30T08:17:32;102528.41;;;8.27;100.00
47054;BME280;32811;52.382;5.270;2024-01-30T08:20:00;102528.47;;;8.29;100.00
47054;BME280;32811;52.382;5.270;2024-01-30T08:22:27;102539.81;;;8.34;100.00
47054;BME280;32811;52.382;5.270;2024-01-30T08:24:54;102536.56;;;8.38;100.00
47054;BME280;32811;52.382;5.270;2024-01-30T08:27:21;102551.59;;;8.48;100.00
47054;BME280;32811;52.382;5.270;2024-01-30T08:29:47;102544.69;;;8.47;100.00
47054;BME280;32811;52.382;5.270;2024-01-30T08:32:14;102545.88;;;8.56;100.00
47054;BME280;32811;52.382;5.270;2024-01-30T08:34:40;102545.38;;;8.64;100.00
47054;BME280;32811;52.382;5.270;2024-01-30T08:37:07;102543.56;;;8.62;100.00
47054;BME280;32811;52.382;5.270;2024-01-30T08:39:34;102524.47;;;8.57;100.00
47054;BME280;32811;52.382;5.270;2024-01-30T08:42:01;102536.75;;;8.64;100.00
47054;BME280;32811;52.382;5.270;2024-01-30T08:44:27;102547.03;;;8.64;100.00
47054;BME280;32811;52.382;5.270;2024-01-30T08:46:54;102560.59;;;8.81;100.00
47054;BME280;32811;52.382;5.270;2024-01-30T08:49:22;102553.75;;;8.81;100.00
47054;BME280;32811;52.382;5.270;2024-01-30T08:51:49;102551.34;;;8.86;100.00
47054;BME280;32811;52.382;5.270;2024-01-30T08:54:16;102546.44;;;8.92;100.00
47054;BME280;32811;52.382;5.270;2024-01-30T08:56:44;102540.59;;;8.96;100.00
47054;BME280;32811;52.382;5.270;2024-01-30T08:59:10;102540.00;;;9.03;100.00
47054;BME280;32811;52.382;5.270;2024-01-30T09:01:39;102543.63;;;9.08;100.00
47054;BME280;32811;52.382;5.270;2024-01-30T09:04:09;102545.41;;;9.09;100.00
47054;BME280;32811;52.382;5.270;2024-01-30T09:06:36;102555.03;;;9.15;100.00
47054;BME280;32811;52.382;5.270;2024-01-30T09:09:06;102558.56;;;9.17;100.00
47054;BME280;32811;52.382;5.270;2024-01-30T09:11:32;102549.78;;;9.12;100.00
47054;BME280;32811;52.382;5.270;2024-01-30T09:13:59;102549.72;;;9.10;100.00
47054;BME280;32811;52.382;5.270;2024-01-30T09:16:25;102546.03;;;9.04;100.00
47054;BME280;32811;52.382;5.270;2024-01-30T09:18:52;102563.34;;;9.08;100.00
47054;BME280;32811;52.382;5.270;2024-01-30T09:21:19;102539.84;;;8.99;100.00
47054;BME280;32811;52.382;5.270;2024-01-30T09:23:46;102557.28;;;9.06;100.00
47054;BME280;32811;52.382;5.270;2024-01-30T09:26:12;102564.22;;;9.08;100.00
47054;BME280;32811;52.382;5.270;2024-01-30T09:28:39;102544.03;;;8.97;100.00
47054;BME280;32811;52.382;5.270;2024-01-30T09:31:09;102568.75;;;9.14;100.00
47054;BME280;32811;52.382;5.270;2024-01-30T09:33:36;102562.06;;;9.19;100.00
47054;BME280;32811;52.382;5.270;2024-01-30T09:36:04;102565.50;;;9.20;100.00
47054;BME280;32811;52.382;5.270;2024-01-30T09:38:31;102557.63;;;9.15;100.00
47054;BME280;32811;52.382;5.270;2024-01-30T09:41:01;102564.59;;;9.18;100.00
47054;BME280;32811;52.382;5.270;2024-01-30T09:43:33;102555.56;;;9.06;100.00
47054;BME280;32811;52.382;5.270;2024-01-30T09:46:00;102568.59;;;9.09;100.00
47054;BME280;32811;52.382;5.270;2024-01-30T09:48:30;102584.09;;;9.11;100.00
47054;BME280;32811;52.382;5.270;2024-01-30T09:50:58;102563.28;;;9.06;100.00
47054;BME280;32811;52.382;5.270;2024-01-30T09:53:25;102568.66;;;9.11;100.00
47054;BME280;32811;52.382;5.270;2024-01-30T09:55:52;102559.25;;;9.13;100.00
47054;BME280;32811;52.382;5.270;2024-01-30T09:58:18;102574.94;;;9.19;100.00
47054;BME280;32811;52.382;5.270;2024-01-30T10:00:45;102576.81;;;9.23;100.00
47054;BME280;32811;52.382;5.270;2024-01-30T10:03:12;102565.25;;;9.12;100.00
47054;BME280;32811;52.382;5.270;2024-01-30T10:05:42;102581.19;;;9.24;100.00
47054;BME280;32811;52.382;5.270;2024-01-30T10:08:16;102587.31;;;9.28;100.00
47054;BME280;32811;52.382;5.270;2024-01-30T10:10:47;102591.06;;;9.36;100.00
47054;BME280;32811;52.382;5.270;2024-01-30T10:13:14;102580.22;;;9.45;100.00
47054;BME280;32811;52.382;5.270;2024-01-30T10:15:41;102584.78;;;9.52;100.00
47054;BME280;32811;52.382;5.270;2024-01-30T10:18:11;102583.91;;;9.51;100.00
47054;BME280;32811;52.382;5.270;2024-01-30T10:20:37;102594.38;;;9.56;100.00
47054;BME280;32811;52.382;5.270;2024-01-30T10:23:04;102597.22;;;9.64;100.00
47054;BME280;32811;52.382;5.270;2024-01-30T10:25:31;102598.31;;;9.70;100.00
47054;BME280;32811;52.382;5.270;2024-01-30T10:27:58;102585.66;;;9.76;100.00
47054;BME280;32811;52.382;5.270;2024-01-30T10:30:26;102586.38;;;9.72;100.00
47054;BME280;32811;52.382;5.270;2024-01-30T10:32:53;102595.03;;;9.74;100.00
47054;BME280;32811;52.382;5.270;2024-01-30T10:35:20;102590.66;;;9.72;100.00
47054;BME280;32811;52.382;5.270;2024-01-30T10:37:47;102597.38;;;9.68;100.00
47054;BME280;32811;52.382;5.270;2024-01-30T10:40:14;102598.75;;;9.59;100.00
47054;BME280;32811;52.382;5.270;2024-01-30T10:42:45;102615.00;;;9.56;100.00
47054;BME280;32811;52.382;5.270;2024-01-30T10:45:13;102606.72;;;9.65;100.00
47054;BME280;32811;52.382;5.270;2024-01-30T10:47:43;102614.50;;;9.66;100.00
47054;BME280;32811;52.382;5.270;2024-01-30T10:50:10;102604.41;;;9.72;100.00
47054;BME280;32811;52.382;5.270;2024-01-30T10:52:39;102602.84;;;9.76;100.00
47054;BME280;32811;52.382;5.270;2024-01-30T10:55:08;102628.81;;;9.82;100.00
47054;BME280;32811;52.382;5.270;2024-01-30T10:57:36;102617.16;;;9.68;100.00
47054;BME280;32811;52.382;5.270;2024-01-30T11:00:10;102616.97;;;9.63;100.00
47054;BME280;32811;52.382;5.270;2024-01-30T11:02:39;102602.31;;;9.38;100.00
47054;BME280;32811;52.382;5.270;2024-01-30T11:05:07;102618.97;;;9.48;100.00
47054;BME280;32811;52.382;5.270;2024-01-30T11:07:35;102622.66;;;9.54;100.00
47054;BME280;32811;52.382;5.270;2024-01-30T11:10:03;102632.34;;;9.60;100.00
47054;BME280;32811;52.382;5.270;2024-01-30T11:12:37;102617.41;;;9.51;100.00
47054;BME280;32811;52.382;5.270;2024-01-30T11:15:08;102631.56;;;9.63;100.00
47054;BME280;32811;52.382;5.270;2024-01-30T11:17:52;102626.09;;;9.53;100.00
47054;BME280;32811;52.382;5.270;2024-01-30T11:20:22;102634.09;;;9.39;100.00
47054;BME280;32811;52.382;5.270;2024-01-30T11:22:53;102636.19;;;9.26;100.00
47054;BME280;32811;52.382;5.270;2024-01-30T11:25:22;102620.03;;;9.08;100.00
47054;BME280;32811;52.382;5.270;2024-01-30T11:27:51;102629.53;;;9.09;100.00
47054;BME280;32811;52.382;5.270;2024-01-30T11:30:28;102637.41;;;8.91;100.00
47054;BME280;32811;52.382;5.270;2024-01-30T11:35:37;102642.03;;;8.79;100.00
47054;BME280;32811;52.382;5.270;2024-01-30T11:38:09;102640.91;;;8.72;100.00
47054;BME280;32811;52.382;5.270;2024-01-30T11:40:39;102625.59;;;8.54;100.00
47054;BME280;32811;52.382;5.270;2024-01-30T11:43:08;102642.25;;;8.62;100.00
47054;BME280;32811;52.382;5.270;2024-01-30T11:45:36;102644.13;;;8.66;100.00
47054;BME280;32811;52.382;5.270;2024-01-30T11:48:03;102639.59;;;8.61;100.00
47054;BME280;32811;52.382;5.270;2024-01-30T11:50:33;102648.25;;;8.63;100.00
47054;BME280;32811;52.382;5.270;2024-01-30T11:53:01;102654.97;;;8.59;100.00
47054;BME280;32811;52.382;5.270;2024-01-30T11:55:29;102640.97;;;8.52;100.00
47054;BME280;32811;52.382;5.270;2024-01-30T11:58:01;102655.72;;;8.57;100.00
47054;BME280;32811;52.382;5.270;2024-01-30T12:00:28;102651.22;;;8.51;100.00
47054;BME280;32811;52.382;5.270;2024-01-30T12:02:57;102650.53;;;8.36;100.00
47054;BME280;32811;52.382;5.270;2024-01-30T12:05:25;102660.94;;;8.39;100.00
47054;BME280;32811;52.382;5.270;2024-01-30T12:07:53;102642.72;;;8.34;100.00
47054;BME280;32811;52.382;5.270;2024-01-30T12:10:21;102663.88;;;8.27;100.00
47054;BME280;32811;52.382;5.270;2024-01-30T12:12:51;102659.28;;;8.20;100.00
47054;BME280;32811;52.382;5.270;2024-01-30T12:15:18;102652.25;;;8.16;100.00
47054;BME280;32811;52.382;5.270;2024-01-30T12:17:48;102661.66;;;8.15;100.00
47054;BME280;32811;52.382;5.270;2024-01-30T12:20:18;102650.53;;;8.16;100.00
47054;BME280;32811;52.382;5.270;2024-01-30T12:22:49;102651.28;;;8.33;100.00
47054;BME280;32811;52.382;5.270;2024-01-30T12:25:18;102664.00;;;8.49;100.00
47054;BME280;32811;52.382;5.270;2024-01-30T12:27:49;102662.88;;;8.64;100.00
47054;BME280;32811;52.382;5.270;2024-01-30T12:30:19;102672.50;;;8.68;100.00
47054;BME280;32811;52.382;5.270;2024-01-30T12:32:49;102668.66;;;8.79;100.00
47054;BME280;32811;52.382;5.270;2024-01-30T12:35:19;102654.28;;;8.63;100.00
47054;BME280;32811;52.382;5.270;2024-01-30T12:37:48;102666.88;;;8.57;100.00
47054;BME280;32811;52.382;5.270;2024-01-30T12:40:22;102673.16;;;8.43;100.00
47054;BME280;32811;52.382;5.270;2024-01-30T12:42:51;102664.94;;;8.32;100.00
47054;BME280;32811;52.382;5.270;2024-01-30T12:45:19;102660.94;;;8.19;100.00
47054;BME280;32811;52.382;5.270;2024-01-30T12:47:49;102686.09;;;8.25;100.00
47054;BME280;32811;52.382;5.270;2024-01-30T12:50:16;102685.81;;;8.19;100.00
47054;BME280;32811;52.382;5.270;2024-01-30T12:52:44;102681.09;;;8.08;100.00
47054;BME280;32811;52.382;5.270;2024-01-30T12:55:15;102682.94;;;8.13;100.00